LPP3001 SAZS-SAWH
Flight info
| Callsign | LPP3001 |
|---|---|
| Flight time | N/A |
| Altitude | 33000 |
| Route | TORES2C TORES UW44 ESQ UT658 GAL UW42 MUBES UW63 LOKEN DCT DABLI DABLI1Q |
| Aircraft | A339/H-SADE1E2E3GHIJ3J5M1P2RWXY/LB2D1 |
Departure
| Time | N/A |
|---|---|
| Airport | Teniente Luis Candelaria International Airport (SAZS) |
Arrival
| Time | 2026-05-07 01:44 |
|---|---|
| Airport | Ushuaia - Malvinas Argentinas International Airport (SAWH) |
| Time | Latitude | Longitude | Altitude | Speed | Heading |
|---|---|---|---|---|---|
| 2026-05-06 23:57 | -43.69100 | -70.95853 | 32919 ft | 491 kts | 175° |
| 2026-05-06 23:57 | -43.72496 | -70.95246 | 32898 ft | 491 kts | 175° |
| 2026-05-06 23:58 | -43.79255 | -70.94035 | 32910 ft | 492 kts | 175° |
| 2026-05-06 23:58 | -43.86027 | -70.92819 | 32887 ft | 493 kts | 175° |
| 2026-05-06 23:59 | -43.92815 | -70.91598 | 32913 ft | 492 kts | 175° |
| 2026-05-06 23:59 | -43.99632 | -70.90368 | 32939 ft | 493 kts | 175° |
| 2026-05-07 00:00 | -44.06401 | -70.89143 | 32917 ft | 492 kts | 175° |
| 2026-05-07 00:00 | -44.12060 | -70.88118 | 32936 ft | 493 kts | 175° |
| 2026-05-07 00:01 | -44.20034 | -70.86671 | 32915 ft | 493 kts | 175° |
| 2026-05-07 00:01 | -44.26821 | -70.85432 | 32933 ft | 494 kts | 175° |
| 2026-05-07 00:02 | -44.33649 | -70.84185 | 32928 ft | 494 kts | 175° |
| 2026-05-07 00:02 | -44.40459 | -70.82938 | 32907 ft | 494 kts | 175° |
| 2026-05-07 00:03 | -44.47281 | -70.81686 | 32922 ft | 493 kts | 175° |
| 2026-05-07 00:03 | -44.54091 | -70.80434 | 32929 ft | 493 kts | 175° |
| 2026-05-07 00:04 | -44.60857 | -70.79188 | 32910 ft | 493 kts | 175° |
| 2026-05-07 00:04 | -44.67672 | -70.77927 | 32911 ft | 493 kts | 175° |
| 2026-05-07 00:05 | -44.74457 | -70.76670 | 32940 ft | 493 kts | 175° |
| 2026-05-07 00:05 | -44.81298 | -70.75401 | 32923 ft | 493 kts | 175° |
| 2026-05-07 00:06 | -44.88057 | -70.74150 | 32925 ft | 493 kts | 176° |
| 2026-05-07 00:06 | -44.94853 | -70.72891 | 32937 ft | 493 kts | 176° |
| 2026-05-07 00:07 | -45.01685 | -70.71622 | 32918 ft | 494 kts | 176° |
| 2026-05-07 00:07 | -45.08507 | -70.70349 | 32924 ft | 494 kts | 175° |
| 2026-05-07 00:08 | -45.15302 | -70.69076 | 32909 ft | 494 kts | 175° |
| 2026-05-07 00:08 | -45.22161 | -70.67790 | 32927 ft | 494 kts | 175° |
| 2026-05-07 00:09 | -45.28924 | -70.66518 | 32913 ft | 493 kts | 176° |
| 2026-05-07 00:09 | -45.35755 | -70.65229 | 32938 ft | 494 kts | 176° |
| 2026-05-07 00:10 | -45.42553 | -70.63944 | 32936 ft | 493 kts | 176° |
| 2026-05-07 00:10 | -45.49358 | -70.62653 | 32911 ft | 494 kts | 176° |
| 2026-05-07 00:11 | -45.56229 | -70.61353 | 32914 ft | 495 kts | 176° |
| 2026-05-07 00:11 | -45.63079 | -70.60049 | 32939 ft | 494 kts | 176° |
| 2026-05-07 00:12 | -45.69849 | -70.58754 | 32931 ft | 494 kts | 176° |
| 2026-05-07 00:12 | -45.76678 | -70.57447 | 32959 ft | 494 kts | 176° |
| 2026-05-07 00:13 | -45.83492 | -70.56139 | 32920 ft | 494 kts | 176° |
| 2026-05-07 00:13 | -45.90317 | -70.54827 | 32958 ft | 494 kts | 176° |
| 2026-05-07 00:14 | -45.97131 | -70.53522 | 32938 ft | 494 kts | 176° |
| 2026-05-07 00:14 | -46.03956 | -70.52209 | 32938 ft | 494 kts | 176° |
| 2026-05-07 00:15 | -46.10743 | -70.50900 | 32930 ft | 495 kts | 176° |
| 2026-05-07 00:15 | -46.17496 | -70.49593 | 32938 ft | 495 kts | 176° |
| 2026-05-07 00:16 | -46.24320 | -70.48271 | 32931 ft | 496 kts | 176° |
| 2026-05-07 00:16 | -46.31139 | -70.46945 | 32925 ft | 495 kts | 176° |
| 2026-05-07 00:17 | -46.37918 | -70.45622 | 32946 ft | 496 kts | 176° |
| 2026-05-07 00:17 | -46.44725 | -70.44289 | 32944 ft | 495 kts | 176° |
| 2026-05-07 00:18 | -46.51555 | -70.42951 | 32944 ft | 496 kts | 176° |
| 2026-05-07 00:18 | -46.58389 | -70.41608 | 32947 ft | 496 kts | 176° |
| 2026-05-07 00:19 | -46.65224 | -70.40260 | 32948 ft | 496 kts | 176° |
| 2026-05-07 00:19 | -46.72036 | -70.38916 | 32942 ft | 497 kts | 176° |
| 2026-05-07 00:20 | -46.78838 | -70.37567 | 32954 ft | 496 kts | 176° |
| 2026-05-07 00:20 | -46.85676 | -70.36211 | 32960 ft | 497 kts | 176° |
| 2026-05-07 00:21 | -46.92519 | -70.34850 | 32944 ft | 498 kts | 175° |
| 2026-05-07 00:21 | -46.99420 | -70.33470 | 32935 ft | 499 kts | 175° |
| 2026-05-07 00:22 | -47.06285 | -70.32095 | 32941 ft | 499 kts | 175° |
| 2026-05-07 00:22 | -47.13163 | -70.30714 | 32941 ft | 500 kts | 175° |
| 2026-05-07 00:23 | -47.20048 | -70.29327 | 32920 ft | 499 kts | 175° |
| 2026-05-07 00:23 | -47.26926 | -70.27940 | 32938 ft | 498 kts | 175° |
| 2026-05-07 00:24 | -47.33767 | -70.26562 | 32931 ft | 499 kts | 175° |
| 2026-05-07 00:24 | -47.40617 | -70.25176 | 32930 ft | 499 kts | 175° |
| 2026-05-07 00:25 | -47.47484 | -70.23779 | 32927 ft | 500 kts | 175° |
| 2026-05-07 00:25 | -47.53235 | -70.22607 | 32900 ft | 500 kts | 175° |
| 2026-05-07 00:26 | -47.61228 | -70.20973 | 32905 ft | 499 kts | 175° |
| 2026-05-07 00:26 | -47.68070 | -70.19572 | 32928 ft | 499 kts | 175° |
| 2026-05-07 00:27 | -47.74955 | -70.18158 | 32925 ft | 500 kts | 175° |
| 2026-05-07 00:27 | -47.81815 | -70.16744 | 32922 ft | 500 kts | 175° |
| 2026-05-07 00:28 | -47.88701 | -70.15318 | 32927 ft | 500 kts | 175° |
| 2026-05-07 00:28 | -47.95549 | -70.13900 | 32939 ft | 500 kts | 175° |
| 2026-05-07 00:29 | -48.02438 | -70.12468 | 32930 ft | 500 kts | 175° |
| 2026-05-07 00:30 | -48.16214 | -70.09595 | 32927 ft | 500 kts | 175° |
| 2026-05-07 00:30 | -48.23097 | -70.08150 | 32928 ft | 501 kts | 175° |
| 2026-05-07 00:31 | -48.29990 | -70.06705 | 32916 ft | 501 kts | 175° |
| 2026-05-07 00:31 | -48.36853 | -70.05257 | 32924 ft | 501 kts | 175° |
| 2026-05-07 00:32 | -48.43753 | -70.03797 | 32939 ft | 501 kts | 175° |
| 2026-05-07 00:32 | -48.50653 | -70.02349 | 32920 ft | 502 kts | 175° |
| 2026-05-07 00:33 | -48.57565 | -70.00899 | 32923 ft | 501 kts | 175° |
| 2026-05-07 00:33 | -48.64432 | -69.99451 | 32917 ft | 501 kts | 175° |
| 2026-05-07 00:34 | -48.71312 | -69.97996 | 32939 ft | 501 kts | 175° |
| 2026-05-07 00:34 | -48.78239 | -69.96523 | 32940 ft | 502 kts | 174° |
| 2026-05-07 00:35 | -48.85089 | -69.95064 | 32942 ft | 502 kts | 175° |
| 2026-05-07 00:35 | -48.92022 | -69.93584 | 32951 ft | 501 kts | 175° |
| 2026-05-07 00:36 | -48.98891 | -69.92114 | 32963 ft | 502 kts | 175° |
| 2026-05-07 00:36 | -49.05801 | -69.90630 | 32976 ft | 502 kts | 175° |
| 2026-05-07 00:37 | -49.12712 | -69.89143 | 32999 ft | 502 kts | 175° |
| 2026-05-07 00:37 | -49.19613 | -69.87652 | 33002 ft | 502 kts | 175° |
| 2026-05-07 00:38 | -49.26505 | -69.86160 | 33018 ft | 502 kts | 174° |
| 2026-05-07 00:38 | -49.33385 | -69.84666 | 33017 ft | 500 kts | 174° |
| 2026-05-07 00:39 | -49.40219 | -69.83176 | 33035 ft | 501 kts | 175° |
| 2026-05-07 00:39 | -49.47137 | -69.81664 | 33036 ft | 501 kts | 175° |
| 2026-05-07 00:40 | -49.54036 | -69.80154 | 33041 ft | 502 kts | 175° |
| 2026-05-07 00:40 | -49.60904 | -69.78646 | 33025 ft | 502 kts | 175° |
| 2026-05-07 00:41 | -49.67841 | -69.77118 | 33031 ft | 502 kts | 175° |
| 2026-05-07 00:41 | -49.74721 | -69.75598 | 33025 ft | 501 kts | 175° |
| 2026-05-07 00:42 | -49.81609 | -69.74071 | 33022 ft | 502 kts | 175° |
| 2026-05-07 00:42 | -49.88477 | -69.72543 | 33019 ft | 501 kts | 175° |
| 2026-05-07 00:43 | -49.95410 | -69.71001 | 33026 ft | 502 kts | 175° |
| 2026-05-07 00:43 | -50.02280 | -69.69463 | 33034 ft | 501 kts | 175° |
| 2026-05-07 00:44 | -50.09184 | -69.67916 | 33036 ft | 502 kts | 175° |
| 2026-05-07 00:44 | -50.16105 | -69.66361 | 33031 ft | 501 kts | 175° |
| 2026-05-07 00:45 | -50.23054 | -69.64794 | 33028 ft | 501 kts | 174° |
| 2026-05-07 00:45 | -50.29956 | -69.63234 | 33036 ft | 501 kts | 174° |
| 2026-05-07 00:46 | -50.36817 | -69.61675 | 33021 ft | 501 kts | 174° |
| 2026-05-07 00:46 | -50.43689 | -69.60112 | 33035 ft | 501 kts | 175° |
| 2026-05-07 00:47 | -50.50567 | -69.58543 | 33021 ft | 501 kts | 174° |
| 2026-05-07 00:47 | -50.57459 | -69.56964 | 33023 ft | 502 kts | 174° |
| 2026-05-07 00:48 | -50.64372 | -69.55375 | 33026 ft | 501 kts | 174° |
| 2026-05-07 00:48 | -50.71245 | -69.53790 | 33022 ft | 500 kts | 175° |
| 2026-05-07 00:49 | -50.78144 | -69.52229 | 33023 ft | 501 kts | 175° |
| 2026-05-07 00:49 | -50.85025 | -69.50675 | 33029 ft | 501 kts | 175° |
| 2026-05-07 00:50 | -50.91877 | -69.49116 | 33029 ft | 500 kts | 174° |
| 2026-05-07 00:50 | -50.98783 | -69.47539 | 33022 ft | 501 kts | 174° |
| 2026-05-07 00:51 | -51.05633 | -69.45970 | 33035 ft | 500 kts | 174° |
| 2026-05-07 00:51 | -51.12527 | -69.44385 | 33047 ft | 500 kts | 174° |
| 2026-05-07 00:52 | -51.19413 | -69.42796 | 33050 ft | 500 kts | 174° |
| 2026-05-07 00:52 | -51.26307 | -69.41201 | 33045 ft | 499 kts | 174° |
| 2026-05-07 00:53 | -51.33155 | -69.39610 | 33034 ft | 499 kts | 174° |
| 2026-05-07 00:53 | -51.40017 | -69.38014 | 33043 ft | 499 kts | 174° |
| 2026-05-07 00:54 | -51.46876 | -69.36410 | 33041 ft | 499 kts | 174° |
| 2026-05-07 00:54 | -51.53738 | -69.34803 | 33033 ft | 499 kts | 173° |
| 2026-05-07 00:55 | -51.60493 | -69.32544 | 33044 ft | 501 kts | 166° |
| 2026-05-07 00:55 | -51.67144 | -69.28967 | 33052 ft | 504 kts | 159° |
| 2026-05-07 00:56 | -51.73575 | -69.24535 | 33055 ft | 504 kts | 157° |
| 2026-05-07 00:56 | -51.79977 | -69.19996 | 33037 ft | 504 kts | 157° |
| 2026-05-07 00:57 | -51.86372 | -69.15479 | 33039 ft | 503 kts | 157° |
| 2026-05-07 00:57 | -51.92755 | -69.10978 | 33030 ft | 503 kts | 157° |
| 2026-05-07 00:58 | -51.99134 | -69.06471 | 33043 ft | 504 kts | 157° |
| 2026-05-07 00:58 | -52.05566 | -69.01916 | 33048 ft | 504 kts | 157° |
| 2026-05-07 00:59 | -52.15168 | -68.95089 | 33041 ft | 504 kts | 158° |
| 2026-05-07 01:00 | -52.21553 | -68.90530 | 33040 ft | 503 kts | 157° |
| 2026-05-07 01:00 | -52.27942 | -68.85954 | 33031 ft | 503 kts | 157° |
| 2026-05-07 01:01 | -52.34300 | -68.81387 | 33038 ft | 502 kts | 157° |
| 2026-05-07 01:01 | -52.40704 | -68.76771 | 33047 ft | 502 kts | 157° |
| 2026-05-07 01:02 | -52.47045 | -68.72182 | 33047 ft | 502 kts | 157° |
| 2026-05-07 01:02 | -52.53451 | -68.67536 | 33059 ft | 501 kts | 157° |
| 2026-05-07 01:03 | -52.59801 | -68.62912 | 33056 ft | 501 kts | 157° |
| 2026-05-07 01:03 | -52.66153 | -68.58271 | 33056 ft | 501 kts | 157° |
| 2026-05-07 01:04 | -52.72502 | -68.53670 | 33049 ft | 500 kts | 159° |
| 2026-05-07 01:04 | -52.77918 | -68.50511 | 33052 ft | 499 kts | 165° |
| 2026-05-07 01:05 | -52.85767 | -68.47649 | 33067 ft | 497 kts | 174° |
| 2026-05-07 01:05 | -52.92637 | -68.46616 | 33063 ft | 495 kts | 179° |
| 2026-05-07 01:06 | -52.99462 | -68.46030 | 33066 ft | 495 kts | 180° |
| 2026-05-07 01:06 | -53.06341 | -68.45427 | 33053 ft | 494 kts | 179° |
| 2026-05-07 01:07 | -53.13154 | -68.44792 | 33071 ft | 493 kts | 179° |
| 2026-05-07 01:07 | -53.20001 | -68.44143 | 33067 ft | 493 kts | 179° |
| 2026-05-07 01:08 | -53.26822 | -68.43488 | 33060 ft | 492 kts | 179° |
| 2026-05-07 01:08 | -53.33666 | -68.42831 | 33072 ft | 493 kts | 179° |
| 2026-05-07 01:09 | -53.40470 | -68.41788 | 33075 ft | 495 kts | 171° |
| 2026-05-07 01:09 | -53.46989 | -68.38228 | 33078 ft | 496 kts | 159° |
| 2026-05-07 01:10 | -53.53360 | -68.33843 | 33074 ft | 495 kts | 158° |
| 2026-05-07 01:10 | -53.59713 | -68.29468 | 33076 ft | 495 kts | 158° |
| 2026-05-07 01:11 | -53.66064 | -68.25129 | 33072 ft | 494 kts | 158° |
| 2026-05-07 01:11 | -53.72398 | -68.20810 | 33078 ft | 494 kts | 159° |
| 2026-05-07 01:12 | -53.78767 | -68.16457 | 33074 ft | 494 kts | 159° |
| 2026-05-07 01:12 | -53.85099 | -68.12118 | 33073 ft | 493 kts | 159° |
| 2026-05-07 01:13 | -53.91435 | -68.07762 | 33071 ft | 493 kts | 159° |
| 2026-05-07 01:13 | -53.97763 | -68.03397 | 33083 ft | 492 kts | 159° |
| 2026-05-07 01:14 | -54.04068 | -67.99033 | 33075 ft | 492 kts | 159° |
| 2026-05-07 01:14 | -54.10373 | -67.94653 | 33074 ft | 492 kts | 158° |
| 2026-05-07 01:15 | -54.16718 | -67.90231 | 33068 ft | 492 kts | 159° |
| 2026-05-07 01:15 | -54.22983 | -67.85852 | 33075 ft | 491 kts | 159° |
| 2026-05-07 01:16 | -54.29310 | -67.81412 | 33069 ft | 492 kts | 159° |
| 2026-05-07 01:16 | -54.35609 | -67.76977 | 33084 ft | 491 kts | 159° |
| 2026-05-07 01:17 | -54.41907 | -67.72526 | 33067 ft | 492 kts | 159° |
| 2026-05-07 01:17 | -54.48206 | -67.68063 | 33079 ft | 491 kts | 159° |
| 2026-05-07 01:17 | -54.51425 | -67.66329 | 33065 ft | 488 kts | 173° |
| 2026-05-07 01:18 | -54.54799 | -67.65793 | 33077 ft | 487 kts | 179° |
| 2026-05-07 01:18 | -54.61544 | -67.65414 | 33062 ft | 486 kts | 180° |
| 2026-05-07 01:19 | -54.68293 | -67.64784 | 33055 ft | 486 kts | 178° |
| 2026-05-07 01:19 | -54.75019 | -67.64011 | 33044 ft | 486 kts | 178° |
| 2026-05-07 01:20 | -54.81713 | -67.63869 | 33033 ft | 481 kts | 193° |
| 2026-05-07 01:20 | -54.84824 | -67.65745 | 33033 ft | 466 kts | 213° |
| 2026-05-07 01:20 | -54.87244 | -67.69154 | 33042 ft | 441 kts | 234° |
| 2026-05-07 01:20 | -54.88731 | -67.73573 | 32937 ft | 420 kts | 255° |
| 2026-05-07 01:21 | -54.89138 | -67.78442 | 32775 ft | 400 kts | 277° |
| 2026-05-07 01:21 | -54.88430 | -67.82975 | 32627 ft | 383 kts | 301° |
| 2026-05-07 01:21 | -54.86789 | -67.86424 | 32470 ft | 371 kts | 323° |
| 2026-05-07 01:21 | -54.84636 | -67.88748 | 32337 ft | 362 kts | 327° |
| 2026-05-07 01:22 | -54.82716 | -67.91554 | 31769 ft | 368 kts | 310° |
| 2026-05-07 01:22 | -54.81385 | -67.95365 | 30899 ft | 383 kts | 293° |
| 2026-05-07 01:22 | -54.80806 | -67.99927 | 30025 ft | 396 kts | 275° |
| 2026-05-07 01:22 | -54.81038 | -68.04675 | 29485 ft | 400 kts | 265° |
| 2026-05-07 01:23 | -54.81293 | -68.09396 | 29079 ft | 393 kts | 271° |
| 2026-05-07 01:23 | -54.81380 | -68.14051 | 28216 ft | 387 kts | 272° |
| 2026-05-07 01:23 | -54.81430 | -68.18669 | 27354 ft | 381 kts | 272° |
| 2026-05-07 01:23 | -54.81475 | -68.23207 | 26518 ft | 376 kts | 272° |
| 2026-05-07 01:24 | -54.81614 | -68.27656 | 25672 ft | 374 kts | 262° |
| 2026-05-07 01:24 | -54.82610 | -68.31811 | 24755 ft | 382 kts | 238° |
| 2026-05-07 01:24 | -54.84446 | -68.35088 | 23971 ft | 384 kts | 219° |
| 2026-05-07 01:24 | -54.86771 | -68.37239 | 23155 ft | 387 kts | 201° |
| 2026-05-07 01:25 | -54.89446 | -68.38051 | 22315 ft | 388 kts | 181° |
| 2026-05-07 01:25 | -54.92079 | -68.37352 | 21521 ft | 387 kts | 161° |
| 2026-05-07 01:25 | -54.94436 | -68.35252 | 20732 ft | 382 kts | 142° |
| 2026-05-07 01:25 | -54.96273 | -68.31982 | 19937 ft | 375 kts | 122° |
| 2026-05-07 01:26 | -54.97396 | -68.27980 | 19178 ft | 366 kts | 103° |
| 2026-05-07 01:26 | -54.97754 | -68.23684 | 18370 ft | 357 kts | 85° |
| 2026-05-07 01:26 | -54.97365 | -68.19531 | 17592 ft | 346 kts | 68° |
| 2026-05-07 01:26 | -54.96535 | -68.15659 | 16808 ft | 341 kts | 66° |
| 2026-05-07 01:27 | -54.95677 | -68.11882 | 16020 ft | 337 kts | 66° |
| 2026-05-07 01:27 | -54.94833 | -68.08124 | 15246 ft | 333 kts | 67° |
| 2026-05-07 01:27 | -54.94017 | -68.04417 | 14490 ft | 329 kts | 68° |
| 2026-05-07 01:27 | -54.93214 | -68.00723 | 13731 ft | 325 kts | 68° |
| 2026-05-07 01:28 | -54.92420 | -67.97044 | 12982 ft | 322 kts | 68° |
| 2026-05-07 01:28 | -54.91651 | -67.93473 | 12383 ft | 314 kts | 68° |
| 2026-05-07 01:28 | -54.90908 | -67.90021 | 12078 ft | 298 kts | 68° |
| 2026-05-07 01:28 | -54.90202 | -67.86742 | 11791 ft | 284 kts | 68° |
| 2026-05-07 01:29 | -54.89519 | -67.83579 | 11512 ft | 271 kts | 68° |
| 2026-05-07 01:29 | -54.88721 | -67.80769 | 11239 ft | 256 kts | 45° |
| 2026-05-07 01:29 | -54.87257 | -67.79229 | 10973 ft | 239 kts | 6° |
| 2026-05-07 01:29 | -54.85704 | -67.79614 | 10734 ft | 225 kts | 326° |
| 2026-05-07 01:30 | -54.84598 | -67.81419 | 10500 ft | 213 kts | 307° |
| 2026-05-07 01:30 | -54.83799 | -67.83533 | 10287 ft | 203 kts | 299° |
| 2026-05-07 01:30 | -54.83299 | -67.85724 | 10088 ft | 193 kts | 283° |
| 2026-05-07 01:30 | -54.83084 | -67.88003 | 9827 ft | 189 kts | 277° |
| 2026-05-07 01:31 | -54.82962 | -67.90257 | 9501 ft | 189 kts | 275° |
| 2026-05-07 01:31 | -54.82893 | -67.92539 | 9178 ft | 188 kts | 272° |
| 2026-05-07 01:31 | -54.82885 | -67.94720 | 8962 ft | 178 kts | 269° |
| 2026-05-07 01:31 | -54.82940 | -67.96849 | 8584 ft | 176 kts | 266° |
| 2026-05-07 01:32 | -54.83048 | -67.98971 | 8191 ft | 176 kts | 265° |
| 2026-05-07 01:32 | -54.83153 | -68.01051 | 7813 ft | 176 kts | 265° |
| 2026-05-07 01:32 | -54.83252 | -68.03153 | 7430 ft | 175 kts | 265° |
| 2026-05-07 01:32 | -54.83346 | -68.05278 | 7051 ft | 175 kts | 265° |
| 2026-05-07 01:33 | -54.83435 | -68.07362 | 6687 ft | 173 kts | 265° |
| 2026-05-07 01:33 | -54.83522 | -68.09445 | 6265 ft | 176 kts | 264° |
| 2026-05-07 01:33 | -54.83609 | -68.11571 | 5781 ft | 181 kts | 264° |
| 2026-05-07 01:33 | -54.83695 | -68.13699 | 5574 ft | 169 kts | 264° |
| 2026-05-07 01:34 | -54.83789 | -68.15768 | 5475 ft | 174 kts | 264° |
| 2026-05-07 01:34 | -54.84000 | -68.17863 | 4903 ft | 182 kts | 243° |
| 2026-05-07 01:34 | -54.84842 | -68.19395 | 4525 ft | 175 kts | 204° |
| 2026-05-07 01:34 | -54.85977 | -68.19707 | 4305 ft | 161 kts | 167° |
| 2026-05-07 01:35 | -54.86937 | -68.18784 | 4087 ft | 161 kts | 130° |
| 2026-05-07 01:35 | -54.87369 | -68.17033 | 3893 ft | 161 kts | 93° |
| 2026-05-07 01:35 | -54.87072 | -68.15183 | 3767 ft | 164 kts | 57° |
| 2026-05-07 01:35 | -54.86155 | -68.14024 | 3600 ft | 168 kts | 17° |
| 2026-05-07 01:36 | -54.85002 | -68.14288 | 3149 ft | 176 kts | 332° |
| 2026-05-07 01:36 | -54.84255 | -68.15942 | 2691 ft | 180 kts | 299° |
| 2026-05-07 01:36 | -54.83888 | -68.18024 | 2257 ft | 184 kts | 277° |
| 2026-05-07 01:36 | -54.83973 | -68.20257 | 1833 ft | 186 kts | 259° |
| 2026-05-07 01:37 | -54.84144 | -68.22452 | 1488 ft | 184 kts | 269° |
| 2026-05-07 01:37 | -54.84114 | -68.24699 | 985 ft | 191 kts | 266° |
| 2026-05-07 01:37 | -54.84307 | -68.26926 | 791 ft | 176 kts | 252° |
| 2026-05-07 01:37 | -54.85009 | -68.28402 | 979 ft | 158 kts | 203° |
| 2026-05-07 01:38 | -54.86086 | -68.28439 | 1201 ft | 158 kts | 157° |
| 2026-05-07 01:38 | -54.86894 | -68.27212 | 1483 ft | 157 kts | 116° |
| 2026-05-07 01:38 | -54.87019 | -68.25390 | 1861 ft | 158 kts | 75° |
| 2026-05-07 01:38 | -54.86400 | -68.23858 | 2202 ft | 161 kts | 34° |
| 2026-05-07 01:39 | -54.85299 | -68.23553 | 2331 ft | 166 kts | 346° |
| 2026-05-07 01:39 | -54.84473 | -68.24859 | 1966 ft | 167 kts | 303° |
| 2026-05-07 01:39 | -54.83652 | -68.26013 | 2312 ft | 151 kts | 345° |
| 2026-05-07 01:39 | -54.82596 | -68.26006 | 2488 ft | 160 kts | 19° |
| 2026-05-07 01:40 | -54.81462 | -68.25720 | 2187 ft | 171 kts | 353° |
| 2026-05-07 01:40 | -54.80290 | -68.26195 | 1802 ft | 180 kts | 353° |
| 2026-05-07 01:40 | -54.79182 | -68.25734 | 1979 ft | 154 kts | 43° |
| 2026-05-07 01:40 | -54.78603 | -68.24139 | 2413 ft | 162 kts | 78° |
| 2026-05-07 01:41 | -54.78643 | -68.22208 | 2672 ft | 163 kts | 109° |
| 2026-05-07 01:41 | -54.79195 | -68.20533 | 2834 ft | 162 kts | 130° |
| 2026-05-07 01:41 | -54.79989 | -68.19127 | 2866 ft | 163 kts | 133° |
| 2026-05-07 01:41 | -54.80785 | -68.17710 | 2805 ft | 164 kts | 136° |
| 2026-05-07 01:42 | -54.81704 | -68.16545 | 2553 ft | 167 kts | 155° |
| 2026-05-07 01:42 | -54.82849 | -68.16123 | 2247 ft | 173 kts | 181° |
| 2026-05-07 01:42 | -54.84039 | -68.16582 | 1832 ft | 185 kts | 205° |
| 2026-05-07 01:42 | -54.84974 | -68.18133 | 1477 ft | 191 kts | 245° |
| 2026-05-07 01:43 | -54.85003 | -68.20339 | 1333 ft | 185 kts | 292° |
| 2026-05-07 01:43 | -54.84403 | -68.22321 | 931 ft | 184 kts | 295° |
| 2026-05-07 01:43 | -54.84161 | -68.24402 | 646 ft | 178 kts | 269° |
| 2026-05-07 01:43 | -54.84205 | -68.26540 | 308 ft | 177 kts | 266° |
| 2026-05-07 01:44 | -54.84289 | -68.28639 | 84 ft | 168 kts | 265° |
| 2026-05-07 01:44 | -54.84367 | -68.30511 | 83 ft | 129 kts | 266° |
| 2026-05-07 01:44 | -54.84396 | -68.31374 | 69 ft | 29 kts | 262° |
| 2026-05-07 01:44 | -54.84422 | -68.31604 | 64 ft | 8 kts | 261° |
| 2026-05-07 01:45 | -54.84415 | -68.31645 | 63 ft | 1 kts | 343° |
| 2026-05-07 01:45 | -54.84404 | -68.31630 | 63 ft | 4 kts | 59° |
| 2026-05-07 01:45 | -54.84400 | -68.31541 | 65 ft | 7 kts | 88° |
| 2026-05-07 01:45 | -54.84397 | -68.31429 | 68 ft | 8 kts | 84° |
| 2026-05-07 01:46 | -54.84378 | -68.31339 | 70 ft | 7 kts | 49° |
| 2026-05-07 01:46 | -54.84331 | -68.31305 | 71 ft | 8 kts | 3° |
| 2026-05-07 01:46 | -54.84284 | -68.31306 | 71 ft | 3 kts | 359° |
| 2026-05-07 01:46 | -54.84257 | -68.31308 | 71 ft | 6 kts | 355° |
| 2026-05-07 01:47 | -54.84191 | -68.31317 | 72 ft | 8 kts | 355° |
| 2026-05-07 01:47 | -54.84150 | -68.31320 | 72 ft | 5 kts | 1° |
| 2026-05-07 01:47 | -54.84113 | -68.31303 | 73 ft | 5 kts | 18° |
| 2026-05-07 01:47 | -54.84096 | -68.31280 | 74 ft | 2 kts | 54° |
| 2026-05-07 01:48 | -54.84076 | -68.31229 | 75 ft | 7 kts | 58° |
| 2026-05-07 01:48 | -54.84049 | -68.31184 | 76 ft | 4 kts | 19° |
| 2026-05-07 01:48 | -54.84024 | -68.31179 | 77 ft | 0 kts | 3° |
| 2026-05-07 01:48 | -54.84020 | -68.31179 | 76 ft | 0 kts | 359° |